Time;durP1;ratioP1;P1;durP2;ratioP2;P2;SDS_P1;SDS_P2;PMS_P1;PMS_P2;Temp;Humidity;BMP_temperature;BMP_pressure;BME280_temperature;BME280_humidity;BME280_pressure;Samples;Min_cycle;Max_cycle;Signal;HPM_P1;HPM_P2
2023/03/20 00:00:27;;;;;;;7.40;3.10;;;;;;;;;;5020789;28;20072;-81
2023/03/20 00:02:53;;;;;;;5.78;2.47;;;;;;;;;;5020769;28;20026;-81
2023/03/20 00:05:22;;;;;;;6.80;2.95;;;;;;;;;;5020241;28;20026;-81
2023/03/20 00:07:49;;;;;;;10.30;3.50;;;;;;;;;;5018604;28;20029;-81
2023/03/20 00:10:16;;;;;;;9.77;3.42;;;;;;;;;;5020128;28;20384;-81
2023/03/20 00:12:42;;;;;;;6.55;3.15;;;;;;;;;;5020828;28;20526;-81
2023/03/20 00:15:29;;;;;;;7.97;3.28;;;;;;;;;;5020610;28;20048;-81
2023/03/20 00:17:55;;;;;;;8.48;3.25;;;;;;;;;;5004141;28;20050;-81
2023/03/20 00:20:21;;;;;;;7.53;3.10;;;;;;;;;;5000589;28;20065;-81
2023/03/20 00:22:47;;;;;;;9.30;3.55;;;;;;;;;;5000395;28;20081;-81
2023/03/20 00:25:15;;;;;;;9.07;3.67;;;;;;;;;;5000331;28;20042;-81
2023/03/20 00:27:41;;;;;;;11.75;3.50;;;;;;;;;;5011076;28;20030;-81
2023/03/20 00:30:17;;;;;;;8.73;3.53;;;;;;;;;;5020052;28;20026;-81
2023/03/20 00:32:44;;;;;;;9.88;3.70;;;;;;;;;;5017992;28;20088;-81
2023/03/20 00:35:20;;;;;;;10.07;3.88;;;;;;;;;;5018094;28;20025;-81
2023/03/20 00:37:46;;;;;;;7.97;3.28;;;;;;;;;;5018088;28;20547;-81
2023/03/20 00:40:13;;;;;;;9.48;3.35;;;;;;;;;;5019113;28;20030;-81
2023/03/20 00:42:41;;;;;;;9.93;3.25;;;;;;;;;;5019459;28;20021;-81
2023/03/20 00:45:12;;;;;;;10.18;3.88;;;;;;;;;;5018748;28;20089;-81
2023/03/20 00:47:40;;;;;;;9.25;4.88;;;;;;;;;;5019731;28;20084;-81
2023/03/20 00:50:14;;;;;;;12.57;4.15;;;;;;;;;;5019837;28;20345;-81
2023/03/20 00:52:40;;;;;;;9.18;3.97;;;;;;;;;;5018394;28;20611;-81
2023/03/20 00:55:06;;;;;;;14.23;3.67;;;;;;;;;;5019127;28;20030;-81
2023/03/20 00:57:36;;;;;;;10.20;3.42;;;;;;;;;;5019022;28;20022;-81
2023/03/20 01:00:03;;;;;;;;;;;;;;;;;;5020027;28;20034;-81
2023/03/20 01:02:30;;;;;;;10.02;3.60;;;;;;;;;;5019605;28;20359;-81
2023/03/20 01:04:57;;;;;;;8.77;3.33;;;;;;;;;;5019019;28;20060;-81
2023/03/20 01:07:23;;;;;;;11.00;4.32;;;;;;;;;;5019170;28;20037;-81
2023/03/20 01:09:49;;;;;;;10.93;4.07;;;;;;;;;;5019017;28;20026;-81
2023/03/20 01:12:16;;;;;;;8.82;3.33;;;;;;;;;;5019091;28;20029;-81
2023/03/20 01:14:42;;;;;;;15.00;3.67;;;;;;;;;;5019146;28;20018;-81
2023/03/20 01:17:19;;;;;;;9.98;3.63;;;;;;;;;;5019124;28;20041;-81
2023/03/20 01:19:45;;;;;;;10.90;3.45;;;;;;;;;;5019301;28;20026;-81
2023/03/20 01:22:13;;;;;;;10.18;3.30;;;;;;;;;;5028364;28;20042;-81
2023/03/20 01:24:42;;;;;;;11.30;3.95;;;;;;;;;;5031173;28;20018;-81
2023/03/20 01:27:16;;;;;;;10.93;3.65;;;;;;;;;;5012844;28;20038;-81
2023/03/20 01:29:42;;;;;;;8.50;4.20;;;;;;;;;;5010389;28;20081;-81
2023/03/20 01:32:13;;;;;;;11.63;4.20;;;;;;;;;;5001945;28;20026;-81
2023/03/20 01:34:39;;;;;;;;;;;;;;;;;;5000752;28;20058;-81
2023/03/20 01:37:09;;;;;;;11.32;4.30;;;;;;;;;;5001976;28;19909;-81
2023/03/20 01:39:36;;;;;;;13.63;4.75;;;;;;;;;;5001793;28;20558;-82
2023/03/20 01:42:04;;;;;;;16.27;5.07;;;;;;;;;;5002296;28;20041;-81
2023/03/20 01:44:32;;;;;;;14.57;5.57;;;;;;;;;;5002262;28;20022;-81
2023/03/20 01:46:58;;;;;;;12.60;4.80;;;;;;;;;;5001149;28;20025;-81
2023/03/20 01:49:25;;;;;;;14.20;5.38;;;;;;;;;;5001810;28;20026;-81
2023/03/20 01:51:51;;;;;;;11.13;5.15;;;;;;;;;;5001187;28;20050;-81
2023/03/20 01:54:26;;;;;;;12.40;4.85;;;;;;;;;;5000659;28;20086;-81
2023/03/20 01:56:56;;;;;;;10.32;4.55;;;;;;;;;;5001509;28;20054;-81
2023/03/20 01:59:31;;;;;;;12.00;4.93;;;;;;;;;;5020850;28;20383;-83
2023/03/20 02:01:57;;;;;;;11.07;4.03;;;;;;;;;;5018394;28;20045;-83
2023/03/20 02:04:26;;;;;;;11.27;4.20;;;;;;;;;;5019381;28;20037;-81
2023/03/20 02:06:56;;;;;;;10.70;3.92;;;;;;;;;;5019982;28;20040;-81
2023/03/20 02:09:25;;;;;;;8.63;4.15;;;;;;;;;;5017896;28;20041;-81
2023/03/20 02:11:51;;;;;;;8.15;4.20;;;;;;;;;;5019715;28;20034;-81
2023/03/20 02:14:18;;;;;;;9.95;3.70;;;;;;;;;;5019528;28;20026;-81
2023/03/20 02:16:44;;;;;;;9.20;3.75;;;;;;;;;;5019116;28;20080;-81
2023/03/20 02:19:16;;;;;;;8.88;3.45;;;;;;;;;;5019163;28;20037;-81
2023/03/20 02:21:57;;;;;;;9.18;4.10;;;;;;;;;;5017514;28;20037;-81
2023/03/20 02:24:40;;;;;;;8.90;3.70;;;;;;;;;;5017332;28;20041;-81
2023/03/20 02:27:06;;;;;;;9.90;3.88;;;;;;;;;;5018645;28;20049;-81
2023/03/20 02:29:44;;;;;;;8.73;3.67;;;;;;;;;;5018386;28;20076;-81
2023/03/20 02:32:28;;;;;;;13.05;4.68;;;;;;;;;;5018667;28;20057;-81
2023/03/20 02:34:55;;;;;;;9.55;3.78;;;;;;;;;;5018098;28;20034;-81
2023/03/20 02:37:42;;;;;;;7.70;4.15;;;;;;;;;;5018189;28;20026;-81
2023/03/20 02:40:15;;;;;;;9.75;4.05;;;;;;;;;;5017850;28;20480;-83
2023/03/20 02:42:57;;;;;;;5.30;3.58;;;;;;;;;;5019160;28;20040;-83
2023/03/20 02:45:28;;;;;;;7.95;3.53;;;;;;;;;;5022186;28;20104;-83
2023/03/20 02:48:11;;;;;;;10.32;3.42;;;;;;;;;;5022126;28;20105;-83
2023/03/20 02:50:56;;;;;;;15.73;5.18;;;;;;;;;;5021171;28;20101;-83
2023/03/20 02:53:38;;;;;;;9.80;3.40;;;;;;;;;;5019508;28;20045;-83
2023/03/20 02:56:10;;;;;;;10.20;4.28;;;;;;;;;;5019169;28;20030;-83
2023/03/20 02:58:43;;;;;;;10.50;3.83;;;;;;;;;;5021356;28;20034;-83
2023/03/20 03:01:29;;;;;;;9.88;4.25;;;;;;;;;;5019332;28;20030;-83
2023/03/20 03:03:55;;;;;;;7.43;3.70;;;;;;;;;;5021171;28;20088;-83
2023/03/20 03:06:24;;;;;;;9.93;3.95;;;;;;;;;;5021347;28;20030;-83
2023/03/20 03:08:54;;;;;;;8.60;3.88;;;;;;;;;;5021526;28;20037;-83
2023/03/20 03:11:20;;;;;;;9.60;3.72;;;;;;;;;;5021172;28;20025;-83
2023/03/20 03:13:49;;;;;;;13.18;5.00;;;;;;;;;;5021086;28;20033;-83
2023/03/20 03:16:24;;;;;;;8.90;4.18;;;;;;;;;;5020658;28;20037;-83
2023/03/20 03:18:53;;;;;;;11.75;5.40;;;;;;;;;;5020667;28;20033;-83
2023/03/20 03:21:22;;;;;;;11.07;4.72;;;;;;;;;;5018792;28;20036;-83
2023/03/20 03:23:49;;;;;;;10.97;4.97;;;;;;;;;;5021060;28;20153;-83
2023/03/20 03:26:19;;;;;;;8.02;4.85;;;;;;;;;;5020221;28;20033;-83
2023/03/20 03:28:46;;;;;;;;;;;;;;;;;;5021335;28;20038;-83
2023/03/20 03:31:14;;;;;;;10.93;5.30;;;;;;;;;;5020681;28;19909;-83
2023/03/20 03:33:42;;;;;;;12.75;5.70;;;;;;;;;;5020444;28;20057;-83
2023/03/20 03:36:38;;;;;;;11.68;5.55;;;;;;;;;;5020075;28;20033;-83
2023/03/20 03:39:26;;;;;;;11.65;5.85;;;;;;;;;;5007806;28;20042;-83
2023/03/20 03:41:55;;;;;;;11.55;5.90;;;;;;;;;;5020761;28;20550;-83
2023/03/20 03:44:33;;;;;;;13.38;6.00;;;;;;;;;;5020615;28;20045;-83
2023/03/20 03:47:21;;;;;;;14.50;6.20;;;;;;;;;;5019768;28;20057;-83
2023/03/20 03:49:50;;;;;;;16.38;7.25;;;;;;;;;;5019920;28;20060;-83
2023/03/20 03:52:17;;;;;;;20.38;6.63;;;;;;;;;;5018856;28;20141;-83
2023/03/20 03:54:55;;;;;;;16.88;6.70;;;;;;;;;;5019616;28;20026;-83
2023/03/20 03:57:27;;;;;;;15.43;7.47;;;;;;;;;;5020180;28;20491;-83
2023/03/20 03:59:54;;;;;;;17.98;7.97;;;;;;;;;;5019603;28;20022;-83
2023/03/20 04:02:21;;;;;;;16.35;8.43;;;;;;;;;;5018037;28;20030;-83
2023/03/20 04:04:50;;;;;;;17.52;8.52;;;;;;;;;;5001236;28;20031;-83
2023/03/20 04:07:16;;;;;;;19.48;9.23;;;;;;;;;;4999143;28;20081;-83
2023/03/20 04:09:42;;;;;;;18.88;8.75;;;;;;;;;;4998026;28;20034;-83
2023/03/20 04:12:26;;;;;;;21.05;8.85;;;;;;;;;;4998968;28;20117;-83
2023/03/20 04:14:52;;;;;;;18.65;8.98;;;;;;;;;;4999823;28;20053;-83
2023/03/20 04:17:18;;;;;;;20.40;8.93;;;;;;;;;;4999284;28;20030;-83
2023/03/20 04:19:49;;;;;;;19.55;8.65;;;;;;;;;;4998055;28;20069;-83
2023/03/20 04:22:22;;;;;;;19.13;9.10;;;;;;;;;;4999710;28;20381;-83
2023/03/20 04:24:48;;;;;;;21.25;9.02;;;;;;;;;;4999664;28;20428;-83
2023/03/20 04:27:14;;;;;;;16.83;7.85;;;;;;;;;;4999773;28;20052;-83
2023/03/20 04:29:40;;;;;;;15.43;8.15;;;;;;;;;;4999526;28;20046;-83
2023/03/20 04:32:06;;;;;;;18.20;8.88;;;;;;;;;;4999879;28;20362;-83
2023/03/20 04:34:32;;;;;;;22.30;8.13;;;;;;;;;;4999651;28;20033;-83
2023/03/20 04:37:00;;;;;;;17.27;7.75;;;;;;;;;;4999231;28;20030;-83
2023/03/20 04:39:26;;;;;;;20.85;8.73;;;;;;;;;;4999445;28;20042;-83
2023/03/20 04:41:52;;;;;;;21.55;8.75;;;;;;;;;;4999427;28;20362;-83
2023/03/20 04:44:18;;;;;;;16.33;7.50;;;;;;;;;;4999415;28;20034;-83
2023/03/20 04:46:44;;;;;;;19.73;8.45;;;;;;;;;;4999390;28;20034;-83
2023/03/20 04:49:10;;;;;;;17.15;7.70;;;;;;;;;;4999616;28;20110;-83
2023/03/20 04:51:36;;;;;;;17.52;7.82;;;;;;;;;;4998402;28;20471;-83
2023/03/20 04:54:02;;;;;;;14.68;7.68;;;;;;;;;;4997912;28;20038;-83
2023/03/20 04:56:28;;;;;;;14.73;7.00;;;;;;;;;;4997708;28;20145;-83
2023/03/20 04:58:54;;;;;;;14.98;7.85;;;;;;;;;;4997845;28;20034;-83
2023/03/20 05:01:22;;;;;;;18.65;7.65;;;;;;;;;;4999081;28;20041;-83
2023/03/20 05:06:56;;;;;;;17.20;7.30;;;;;;;;;;4998864;28;20149;-83
2023/03/20 05:09:22;;;;;;;14.73;7.00;;;;;;;;;;4999031;28;20036;-83
2023/03/20 05:11:48;;;;;;;14.93;7.10;;;;;;;;;;4998941;28;20038;-83
2023/03/20 05:14:14;;;;;;;13.10;6.65;;;;;;;;;;4998737;28;20030;-82
2023/03/20 05:16:40;;;;;;;15.35;7.35;;;;;;;;;;4999196;28;20041;-81
2023/03/20 05:19:06;;;;;;;14.30;6.88;;;;;;;;;;4998387;28;20026;-81
2023/03/20 05:21:32;;;;;;;15.60;7.13;;;;;;;;;;4998141;28;20080;-81
2023/03/20 05:23:58;;;;;;;14.85;7.35;;;;;;;;;;5004710;28;20029;-81
2023/03/20 05:26:24;;;;;;;15.95;8.52;;;;;;;;;;5034124;28;20029;-81
2023/03/20 05:29:09;;;;;;;16.58;8.25;;;;;;;;;;5029428;28;20029;-81
2023/03/20 05:31:35;;;;;;;21.55;8.02;;;;;;;;;;5015263;28;20046;-81
2023/03/20 05:34:01;;;;;;;16.13;7.97;;;;;;;;;;5017225;28;20785;-81
2023/03/20 05:36:27;;;;;;;20.95;9.90;;;;;;;;;;5016928;28;20033;-81
2023/03/20 05:38:54;;;;;;;20.05;9.82;;;;;;;;;;5017406;28;20028;-81
2023/03/20 05:41:20;;;;;;;20.35;9.80;;;;;;;;;;5017970;28;20026;-81
2023/03/20 05:43:46;;;;;;;18.48;9.70;;;;;;;;;;5017755;28;20030;-81
2023/03/20 05:46:12;;;;;;;20.90;9.35;;;;;;;;;;5018268;28;20033;-81
2023/03/20 05:48:38;;;;;;;19.48;9.43;;;;;;;;;;5017641;28;20026;-81
2023/03/20 05:51:04;;;;;;;18.38;9.80;;;;;;;;;;5017499;28;20029;-80
2023/03/20 05:53:30;;;;;;;21.92;10.57;;;;;;;;;;5017145;28;20045;-80
2023/03/20 05:55:56;;;;;;;23.50;11.02;;;;;;;;;;5016881;28;20392;-81
2023/03/20 05:58:22;;;;;;;19.98;10.13;;;;;;;;;;5016023;28;20026;-81
2023/03/20 06:00:48;;;;;;;23.35;10.98;;;;;;;;;;5017325;28;20030;-80
2023/03/20 06:03:14;;;;;;;23.13;10.40;;;;;;;;;;5015887;28;20038;-80
2023/03/20 06:05:41;;;;;;;20.80;9.95;;;;;;;;;;5016659;28;20030;-80
2023/03/20 06:08:07;;;;;;;24.73;10.05;;;;;;;;;;5016095;28;20045;-80
2023/03/20 06:10:33;;;;;;;23.00;10.50;;;;;;;;;;5015589;28;20030;-80
2023/03/20 06:13:00;;;;;;;23.50;11.85;;;;;;;;;;5016932;28;20036;-80
2023/03/20 06:15:27;;;;;;;24.02;11.48;;;;;;;;;;5017092;28;20029;-80
2023/03/20 06:17:53;;;;;;;22.17;10.80;;;;;;;;;;5020120;28;20049;-80
2023/03/20 06:20:19;;;;;;;20.75;9.75;;;;;;;;;;5019319;28;20384;-80
2023/03/20 06:22:46;;;;;;;21.60;10.18;;;;;;;;;;5017869;28;20492;-80
2023/03/20 06:25:11;;;;;;;21.58;10.60;;;;;;;;;;5019826;28;20046;-80
2023/03/20 06:27:38;;;;;;;25.73;11.13;;;;;;;;;;5021583;28;20033;-80
2023/03/20 06:30:05;;;;;;;21.65;9.65;;;;;;;;;;5020871;28;20018;-80
2023/03/20 06:32:31;;;;;;;18.88;9.10;;;;;;;;;;5020968;28;20026;-80
2023/03/20 06:34:57;;;;;;;24.40;10.35;;;;;;;;;;5019574;28;20058;-80
2023/03/20 06:37:23;;;;;;;22.70;10.20;;;;;;;;;;5020568;28;20022;-80
2023/03/20 06:39:49;;;;;;;24.52;9.98;;;;;;;;;;5019164;28;20061;-80
2023/03/20 06:42:15;;;;;;;20.05;10.35;;;;;;;;;;5018546;28;20377;-80
2023/03/20 06:44:41;;;;;;;19.45;10.30;;;;;;;;;;5021007;28;20025;-81
2023/03/20 06:47:07;;;;;;;23.58;9.52;;;;;;;;;;5020931;28;20072;-81
2023/03/20 06:49:33;;;;;;;19.38;9.65;;;;;;;;;;5019976;28;20491;-80
2023/03/20 06:51:59;;;;;;;18.55;9.13;;;;;;;;;;5020066;28;20054;-80
2023/03/20 06:54:26;;;;;;;20.92;9.82;;;;;;;;;;5020322;28;20037;-81
2023/03/20 06:56:52;;;;;;;20.35;10.45;;;;;;;;;;5019731;28;20032;-81
2023/03/20 06:59:18;;;;;;;21.65;10.40;;;;;;;;;;5020035;28;20076;-81
2023/03/20 07:01:44;;;;;;;21.38;9.98;;;;;;;;;;5020666;28;20029;-80
2023/03/20 07:04:10;;;;;;;22.40;10.13;;;;;;;;;;5020780;28;20045;-80
2023/03/20 07:06:36;;;;;;;22.60;10.18;;;;;;;;;;5018395;28;20033;-80
2023/03/20 07:09:03;;;;;;;21.73;11.25;;;;;;;;;;5020100;28;20022;-80
2023/03/20 07:11:29;;;;;;;22.52;10.02;;;;;;;;;;5019694;28;20388;-80
2023/03/20 07:13:58;;;;;;;19.13;9.68;;;;;;;;;;5020120;28;20438;-80
2023/03/20 07:16:24;;;;;;;21.65;10.20;;;;;;;;;;5020319;28;20164;-80
2023/03/20 07:18:50;;;;;;;20.83;10.40;;;;;;;;;;5019347;28;20049;-80
2023/03/20 07:21:18;;;;;;;21.73;9.55;;;;;;;;;;5019575;28;20033;-81
2023/03/20 07:23:44;;;;;;;17.92;9.63;;;;;;;;;;5019602;28;20030;-80
2023/03/20 07:26:11;;;;;;;27.98;10.07;;;;;;;;;;5019307;28;20037;-80
2023/03/20 07:28:37;;;;;;;17.63;9.55;;;;;;;;;;5017763;28;20105;-81
2023/03/20 07:31:03;;;;;;;19.70;9.90;;;;;;;;;;5020226;28;20053;-81
2023/03/20 07:33:29;;;;;;;19.95;8.68;;;;;;;;;;5019533;28;20065;-80
2023/03/20 07:35:55;;;;;;;19.88;8.73;;;;;;;;;;5019669;28;20026;-80
2023/03/20 07:38:21;;;;;;;16.17;8.50;;;;;;;;;;5019817;28;20026;-80
2023/03/20 07:40:47;;;;;;;19.85;9.25;;;;;;;;;;5018390;28;20052;-81
2023/03/20 07:43:14;;;;;;;15.80;8.00;;;;;;;;;;5019440;28;20029;-81
2023/03/20 07:45:40;;;;;;;17.98;9.13;;;;;;;;;;5019340;28;20077;-81
2023/03/20 07:48:06;;;;;;;19.38;9.63;;;;;;;;;;5019657;28;20104;-81
2023/03/20 07:50:32;;;;;;;15.85;8.57;;;;;;;;;;5018732;28;20034;-80
2023/03/20 07:52:59;;;;;;;22.65;9.30;;;;;;;;;;5018500;28;20419;-80
2023/03/20 07:55:25;;;;;;;17.92;8.52;;;;;;;;;;5018922;28;20025;-80
2023/03/20 07:57:53;;;;;;;19.42;9.70;;;;;;;;;;5018654;28;20026;-80
2023/03/20 08:00:19;;;;;;;19.58;8.45;;;;;;;;;;5018785;28;20100;-81
2023/03/20 08:02:45;;;;;;;15.98;8.10;;;;;;;;;;5018453;28;20034;-81
2023/03/20 08:05:11;;;;;;;14.88;8.02;;;;;;;;;;5018743;28;20084;-80
2023/03/20 08:07:37;;;;;;;17.90;8.57;;;;;;;;;;5017174;28;20030;-81
2023/03/20 08:10:03;;;;;;;15.57;7.82;;;;;;;;;;5015495;28;20029;-81
2023/03/20 08:12:29;;;;;;;14.88;8.25;;;;;;;;;;5012225;28;20014;-80
2023/03/20 08:14:55;;;;;;;14.25;7.75;;;;;;;;;;5018558;28;20049;-80
2023/03/20 08:17:21;;;;;;;15.88;7.60;;;;;;;;;;5018020;28;20064;-81
2023/03/20 08:19:47;;;;;;;15.45;7.80;;;;;;;;;;5015759;28;20379;-81
2023/03/20 08:22:13;;;;;;;20.63;9.65;;;;;;;;;;5018224;28;20036;-81
2023/03/20 08:24:39;;;;;;;14.85;8.27;;;;;;;;;;5017685;28;20022;-81
2023/03/20 08:27:06;;;;;;;17.70;8.95;;;;;;;;;;5016380;28;20049;-81
2023/03/20 08:29:32;;;;;;;16.65;8.02;;;;;;;;;;5018052;28;20022;-81
2023/03/20 08:31:58;;;;;;;14.75;8.00;;;;;;;;;;5017715;28;20026;-81
2023/03/20 08:34:25;;;;;;;16.65;8.82;;;;;;;;;;5018289;28;20028;-81
2023/03/20 08:36:51;;;;;;;19.83;8.13;;;;;;;;;;5017915;28;20072;-81
2023/03/20 08:39:26;;;;;;;19.45;8.60;;;;;;;;;;5017832;28;20022;-81
2023/03/20 08:41:54;;;;;;;14.55;8.32;;;;;;;;;;5009023;28;20045;-81
2023/03/20 08:44:20;;;;;;;12.95;7.97;;;;;;;;;;5019646;28;20022;-81
2023/03/20 08:46:46;;;;;;;19.17;9.65;;;;;;;;;;5023713;28;20053;-81
2023/03/20 08:49:12;;;;;;;18.38;8.68;;;;;;;;;;5026942;28;20479;-81
2023/03/20 08:51:38;;;;;;;15.68;8.73;;;;;;;;;;5024798;28;20022;-81
2023/03/20 08:54:04;;;;;;;18.10;7.85;;;;;;;;;;5020599;28;20061;-81
2023/03/20 08:56:31;;;;;;;13.75;8.68;;;;;;;;;;5019765;28;20077;-81
2023/03/20 08:58:57;;;;;;;18.60;8.52;;;;;;;;;;5020166;28;20060;-81
2023/03/20 09:01:23;;;;;;;17.23;8.63;;;;;;;;;;5018961;28;20033;-81
2023/03/20 09:03:49;;;;;;;18.42;8.35;;;;;;;;;;5018524;28;20022;-81
2023/03/20 09:06:15;;;;;;;18.45;8.13;;;;;;;;;;5019487;28;20028;-81
2023/03/20 09:08:41;;;;;;;23.80;9.45;;;;;;;;;;5016704;28;20029;-81
2023/03/20 09:11:07;;;;;;;18.73;7.63;;;;;;;;;;5013575;28;20550;-81
2023/03/20 09:13:39;;;;;;;23.00;9.82;;;;;;;;;;5017070;28;20014;-81
2023/03/20 09:16:06;;;;;;;22.35;10.48;;;;;;;;;;5016753;28;20029;-81
2023/03/20 09:18:32;;;;;;;14.38;8.05;;;;;;;;;;5017121;28;20040;-80
2023/03/20 09:20:58;;;;;;;16.58;7.63;;;;;;;;;;5015414;28;20026;-80
2023/03/20 09:23:25;;;;;;;21.25;9.73;;;;;;;;;;5020551;28;20025;-80
2023/03/20 09:25:51;;;;;;;31.25;13.15;;;;;;;;;;5027330;28;20037;-80
2023/03/20 09:28:17;;;;;;;18.58;7.93;;;;;;;;;;5028272;28;20030;-80
2023/03/20 09:30:44;;;;;;;21.63;9.13;;;;;;;;;;5024978;28;20036;-79
2023/03/20 09:33:10;;;;;;;14.35;7.57;;;;;;;;;;5020801;28;20119;-80
2023/03/20 09:35:36;;;;;;;19.30;8.02;;;;;;;;;;5026158;28;20713;-78
2023/03/20 09:38:02;;;;;;;24.05;10.50;;;;;;;;;;5033231;28;20049;-78
2023/03/20 09:40:29;;;;;;;23.55;9.15;;;;;;;;;;5038386;28;20029;-79
2023/03/20 09:43:10;;;;;;;27.95;10.45;;;;;;;;;;5038781;28;20609;-79
2023/03/20 09:45:43;;;;;;;27.40;10.07;;;;;;;;;;5037734;28;20061;-79
2023/03/20 09:48:28;;;;;;;25.95;10.35;;;;;;;;;;5022035;28;20014;-79
2023/03/20 09:50:57;;;;;;;40.50;15.43;;;;;;;;;;5020095;28;20384;-79
2023/03/20 09:53:45;;;;;;;16.35;7.25;;;;;;;;;;5020225;28;20050;-78
2023/03/20 09:56:16;;;;;;;14.15;5.95;;;;;;;;;;5006987;28;20026;-79
2023/03/20 09:58:43;;;;;;;15.82;5.95;;;;;;;;;;5018428;28;20030;-79
2023/03/20 10:01:11;;;;;;;15.27;6.35;;;;;;;;;;5002953;28;20084;-79
2023/03/20 10:03:38;;;;;;;17.15;5.80;;;;;;;;;;5006520;28;20417;-79
2023/03/20 10:06:05;;;;;;;12.25;5.28;;;;;;;;;;5000103;28;20027;-78
2023/03/20 10:08:36;;;;;;;13.90;5.20;;;;;;;;;;5007069;28;20452;-78
2023/03/20 10:11:07;;;;;;;11.60;5.65;;;;;;;;;;5016370;28;20036;-78
2023/03/20 10:13:33;;;;;;;;;;;;;;;;;;4999191;28;20030;-79
2023/03/20 10:16:17;;;;;;;15.85;5.50;;;;;;;;;;4996615;28;19906;-78
2023/03/20 10:18:49;;;;;;;12.35;4.38;;;;;;;;;;4996794;28;20026;-78
2023/03/20 10:21:35;;;;;;;11.98;4.80;;;;;;;;;;5007069;28;20026;-78
2023/03/20 10:24:06;;;;;;;11.82;4.80;;;;;;;;;;5017628;28;20034;-79
2023/03/20 10:26:35;;;;;;;12.52;4.43;;;;;;;;;;5015400;28;20022;-78
2023/03/20 10:29:04;;;;;;;12.00;5.60;;;;;;;;;;5015616;28;20388;-78
2023/03/20 10:31:45;;;;;;;11.25;4.35;;;;;;;;;;5015079;28;20033;-78
2023/03/20 10:34:26;;;;;;;14.63;4.50;;;;;;;;;;5013312;28;20030;-78
2023/03/20 10:36:55;;;;;;;12.55;4.32;;;;;;;;;;5014994;28;20022;-79
2023/03/20 10:39:24;;;;;;;13.40;3.95;;;;;;;;;;5017067;28;20490;-78
2023/03/20 10:41:54;;;;;;;11.95;4.13;;;;;;;;;;5009736;28;20034;-79
2023/03/20 10:44:41;;;;;;;9.90;3.95;;;;;;;;;;4996395;28;20018;-79
2023/03/20 10:47:09;;;;;;;13.20;4.35;;;;;;;;;;4994926;28;20040;-78
2023/03/20 10:49:41;;;;;;;10.68;3.97;;;;;;;;;;5009947;28;20041;-79
2023/03/20 10:52:13;;;;;;;11.15;5.13;;;;;;;;;;4999763;28;20100;-78
2023/03/20 10:54:41;;;;;;;8.98;4.43;;;;;;;;;;5012594;28;20045;-79
2023/03/20 10:57:12;;;;;;;9.63;4.72;;;;;;;;;;5014648;28;20030;-79
2023/03/20 10:59:40;;;;;;;11.30;5.13;;;;;;;;;;5015347;28;20041;-79
2023/03/20 11:02:12;;;;;;;14.32;5.55;;;;;;;;;;5014649;28;20030;-78
2023/03/20 11:04:38;;;;;;;11.95;4.70;;;;;;;;;;5013305;28;20029;-79
2023/03/20 11:07:07;;;;;;;12.40;4.68;;;;;;;;;;5020064;28;20022;-79
2023/03/20 11:09:33;;;;;;;10.68;5.45;;;;;;;;;;5018217;28;20045;-78
2023/03/20 11:12:01;;;;;;;13.20;6.05;;;;;;;;;;5017968;28;20113;-79
2023/03/20 11:14:32;;;;;;;12.00;5.80;;;;;;;;;;5018098;28;20036;-78
2023/03/20 11:17:00;;;;;;;9.65;5.78;;;;;;;;;;5017193;28;20148;-78
2023/03/20 11:19:26;;;;;;;14.75;7.15;;;;;;;;;;5017315;28;20125;-78
2023/03/20 11:21:55;;;;;;;11.93;6.18;;;;;;;;;;5017303;28;20029;-78
2023/03/20 11:24:27;;;;;;;9.55;5.53;;;;;;;;;;5018478;28;20037;-79
2023/03/20 11:26:53;;;;;;;10.00;6.22;;;;;;;;;;5019342;28;20108;-79
2023/03/20 11:29:33;;;;;;;9.23;6.38;;;;;;;;;;5017456;28;20480;-78
2023/03/20 11:32:15;;;;;;;11.65;6.57;;;;;;;;;;5015378;28;20037;-78
2023/03/20 11:34:42;;;;;;;16.05;7.20;;;;;;;;;;5016026;28;20108;-78
2023/03/20 11:37:20;;;;;;;10.23;6.45;;;;;;;;;;5016041;28;20022;-78
2023/03/20 11:39:58;;;;;;;7.90;5.57;;;;;;;;;;5016293;28;20241;-78
2023/03/20 11:42:25;;;;;;;6.20;4.35;;;;;;;;;;5016026;28;20072;-78
2023/03/20 11:45:01;;;;;;;8.77;4.90;;;;;;;;;;5013202;28;20022;-78
2023/03/20 11:47:30;;;;;;;5.60;4.68;;;;;;;;;;5007696;28;20159;-78
2023/03/20 11:49:58;;;;;;;6.63;4.45;;;;;;;;;;5005380;28;20029;-78
2023/03/20 11:52:27;;;;;;;6.93;4.90;;;;;;;;;;5009761;28;20050;-78
2023/03/20 11:54:55;;;;;;;4.85;4.07;;;;;;;;;;5007558;28;20029;-78
2023/03/20 11:57:30;;;;;;;6.55;4.75;;;;;;;;;;5010533;28;20109;-79
2023/03/20 11:59:56;;;;;;;7.75;4.63;;;;;;;;;;5006583;28;20670;-79
2023/03/20 12:02:25;;;;;;;6.50;4.85;;;;;;;;;;5010145;28;20480;-79
2023/03/20 12:04:53;;;;;;;7.72;4.88;;;;;;;;;;5019442;28;20034;-77
2023/03/20 12:07:21;;;;;;;7.05;4.90;;;;;;;;;;5031863;28;20037;-79
2023/03/20 12:10:14;;;;;;;8.30;5.07;;;;;;;;;;5033590;28;20037;-78
2023/03/20 12:13:02;;;;;;;5.63;5.13;;;;;;;;;;5020303;28;20041;-79
2023/03/20 12:15:34;;;;;;;6.55;5.35;;;;;;;;;;4995712;28;20035;-79
2023/03/20 12:18:14;;;;;;;7.82;5.53;;;;;;;;;;4999972;28;20022;-79
2023/03/20 12:20:40;;;;;;;;;;;;;;;;;;5015757;28;20026;-79
2023/03/20 12:23:12;;;;;;;8.57;5.95;;;;;;;;;;5013553;28;19910;-77
2023/03/20 12:25:51;;;;;;;7.55;5.57;;;;;;;;;;5014697;28;20104;-76
2023/03/20 12:28:20;;;;;;;6.68;5.65;;;;;;;;;;5014570;28;20471;-77
2023/03/20 12:30:55;;;;;;;8.35;6.22;;;;;;;;;;5015720;28;20037;-78
2023/03/20 12:33:42;;;;;;;9.75;6.90;;;;;;;;;;5015218;28;20033;-78
2023/03/20 12:36:12;;;;;;;8.55;6.43;;;;;;;;;;5014897;28;20026;-78
2023/03/20 12:38:39;;;;;;;6.20;5.60;;;;;;;;;;5014937;28;20120;-78
2023/03/20 12:41:13;;;;;;;6.70;5.43;;;;;;;;;;5015228;28;20048;-78
2023/03/20 12:43:51;;;;;;;6.90;5.95;;;;;;;;;;5014834;28;20029;-79
2023/03/20 12:46:25;;;;;;;7.68;6.15;;;;;;;;;;5016080;28;20502;-78
2023/03/20 12:48:54;;;;;;;8.18;6.88;;;;;;;;;;5013631;28;20475;-78
2023/03/20 12:51:35;;;;;;;6.78;6.05;;;;;;;;;;5014788;28;20033;-78
2023/03/20 12:54:01;;;;;;;7.43;6.22;;;;;;;;;;5013736;28;20420;-78
2023/03/20 12:56:48;;;;;;;8.50;6.28;;;;;;;;;;5014344;28;20054;-78
2023/03/20 12:59:26;;;;;;;9.25;6.45;;;;;;;;;;5013232;28;20369;-78
2023/03/20 13:02:09;;;;;;;10.35;6.88;;;;;;;;;;5014542;28;20025;-79
2023/03/20 13:04:41;;;;;;;7.40;6.05;;;;;;;;;;5015617;28;20037;-79
2023/03/20 13:07:31;;;;;;;7.13;5.88;;;;;;;;;;5014190;28;20040;-79
2023/03/20 13:09:57;;;;;;;7.78;6.55;;;;;;;;;;5007792;28;20046;-79
2023/03/20 13:12:40;;;;;;;9.07;6.18;;;;;;;;;;5014637;28;20106;-78
2023/03/20 13:15:36;;;;;;;6.88;5.18;;;;;;;;;;5019268;28;20063;-78
2023/03/20 13:18:15;;;;;;;6.25;5.47;;;;;;;;;;5012143;28;20033;-78
2023/03/20 13:20:47;;;;;;;10.07;5.53;;;;;;;;;;5012592;28;20038;-78
2023/03/20 13:23:26;;;;;;;7.85;5.85;;;;;;;;;;5014964;28;20026;-79
2023/03/20 13:25:52;;;;;;;5.72;4.68;;;;;;;;;;5014950;28;20071;-80
2023/03/20 13:28:30;;;;;;;9.20;5.93;;;;;;;;;;5015063;28;20018;-79
2023/03/20 13:31:05;;;;;;;7.57;5.63;;;;;;;;;;5015517;28;20048;-79
2023/03/20 13:33:35;;;;;;;10.18;6.25;;;;;;;;;;5014500;28;20105;-78
2023/03/20 13:36:12;;;;;;;12.53;7.90;;;;;;;;;;5014085;28;20033;-78
2023/03/20 13:38:42;;;;;;;11.60;7.30;;;;;;;;;;5013875;28;20022;-78
2023/03/20 13:41:09;;;;;;;9.40;5.97;;;;;;;;;;5013446;28;20034;-78
2023/03/20 13:43:35;;;;;;;7.93;6.00;;;;;;;;;;5013859;28;20088;-78
2023/03/20 13:46:07;;;;;;;6.53;4.97;;;;;;;;;;5013461;28;20021;-78
2023/03/20 13:48:38;;;;;;;11.05;7.00;;;;;;;;;;5013650;28;20101;-78
2023/03/20 13:51:23;;;;;;;7.75;5.50;;;;;;;;;;5013312;28;20057;-78
2023/03/20 13:53:53;;;;;;;8.27;5.75;;;;;;;;;;4991981;28;20031;-78
2023/03/20 13:56:31;;;;;;;6.97;5.40;;;;;;;;;;4994035;28;20049;-78
2023/03/20 13:59:15;;;;;;;8.27;6.28;;;;;;;;;;4994357;28;20359;-78
2023/03/20 14:01:41;;;;;;;6.75;5.25;;;;;;;;;;4993409;28;20030;-78
2023/03/20 14:04:15;;;;;;;6.13;4.78;;;;;;;;;;5004482;28;20084;-78
2023/03/20 14:06:48;;;;;;;4.70;4.30;;;;;;;;;;5013006;28;20026;-78
2023/03/20 14:09:43;;;;;;;5.85;4.07;;;;;;;;;;5013399;28;20144;-78
2023/03/20 14:12:11;;;;;;;5.35;4.47;;;;;;;;;;4995312;28;20049;-78
2023/03/20 14:14:45;;;;;;;4.95;4.45;;;;;;;;;;5013118;28;20034;-78
2023/03/20 14:17:14;;;;;;;6.22;5.15;;;;;;;;;;5013119;28;20045;-78
2023/03/20 14:19:40;;;;;;;6.40;5.05;;;;;;;;;;5012971;28;20029;-78
2023/03/20 14:22:06;;;;;;;4.93;4.38;;;;;;;;;;5012893;28;20480;-78
2023/03/20 14:24:40;;;;;;;5.07;4.18;;;;;;;;;;5012986;28;20383;-78
2023/03/20 14:27:06;;;;;;;4.80;4.05;;;;;;;;;;5013544;28;20157;-78
2023/03/20 14:29:33;;;;;;;4.78;4.15;;;;;;;;;;5013535;28;20030;-78
2023/03/20 14:32:25;;;;;;;4.93;4.40;;;;;;;;;;5012865;28;20034;-78
2023/03/20 14:34:53;;;;;;;4.43;3.83;;;;;;;;;;5009569;28;20065;-78
2023/03/20 14:37:38;;;;;;;4.50;4.03;;;;;;;;;;5012110;28;20456;-78
2023/03/20 14:40:21;;;;;;;4.90;3.38;;;;;;;;;;5016764;28;20058;-78
2023/03/20 14:42:50;;;;;;;4.95;3.00;;;;;;;;;;5017030;28;20037;-78
2023/03/20 14:45:28;;;;;;;4.18;3.22;;;;;;;;;;5019666;28;20156;-78
2023/03/20 14:47:55;;;;;;;4.63;3.65;;;;;;;;;;5021023;28;20026;-78
2023/03/20 14:50:23;;;;;;;5.28;3.75;;;;;;;;;;5021159;28;20099;-78
2023/03/20 14:52:55;;;;;;;4.22;3.08;;;;;;;;;;5020205;28;20498;-78
2023/03/20 14:55:23;;;;;;;4.25;2.83;;;;;;;;;;5017377;28;20452;-78